Time;durP1;ratioP1;P1;durP2;ratioP2;P2;SDS_P1;SDS_P2;PMS_P1;PMS_P2;Temp;Humidity;BMP_temperature;BMP_pressure;BME280_temperature;BME280_humidity;BME280_pressure;Samples;Min_cycle;Max_cycle;Signal;HPM_P1;HPM_P2
2023/02/22 17:04:35;;;;;;;29.13;16.15;;;9.50;99.90;;;;;;5068047;28;20922;-60
2023/02/22 17:07:01;;;;;;;30.48;16.23;;;9.50;99.90;;;;;;5075818;28;20075;-60
2023/02/22 17:09:27;;;;;;;31.70;17.70;;;9.50;99.90;;;;;;5080658;28;20035;-61
2023/02/22 17:11:54;;;;;;;35.40;18.70;;;9.60;99.90;;;;;;5059191;28;20021;-62
2023/02/22 17:14:23;;;;;;;30.60;17.33;;;9.70;99.90;;;;;;5065714;28;20021;-61
2023/02/22 17:16:50;;;;;;;32.83;18.50;;;9.80;99.90;;;;;;5067296;28;20025;-61
2023/02/22 17:19:19;;;;;;;29.02;15.77;;;9.80;99.90;;;;;;5066363;28;20082;-61
2023/02/22 17:21:45;;;;;;;31.08;17.60;;;9.90;99.90;;;;;;5067768;28;20033;-61
2023/02/22 17:24:12;;;;;;;26.63;16.92;;;9.90;99.90;;;;;;5066645;28;20115;-60
2023/02/22 17:26:39;;;;;;;34.30;18.83;;;9.90;99.90;;;;;;5070755;28;20051;-60
2023/02/22 17:29:04;;;;;;;36.20;19.48;;;10.00;99.90;;;;;;5075836;28;20029;-61
2023/02/22 17:31:30;;;;;;;31.50;17.92;;;10.00;99.90;;;;;;5067254;28;20044;-60
2023/02/22 17:34:03;;;;;;;34.72;18.35;;;10.00;99.90;;;;;;5067453;28;20016;-61
2023/02/22 17:36:31;;;;;;;29.13;17.88;;;10.10;99.90;;;;;;5066960;28;20025;-61
2023/02/22 17:38:58;;;;;;;27.10;15.35;;;10.10;99.90;;;;;;5066947;28;20103;-61
2023/02/22 17:41:24;;;;;;;29.75;15.95;;;10.10;99.90;;;;;;5067435;28;20021;-61
2023/02/22 17:43:50;;;;;;;28.27;17.83;;;10.10;99.90;;;;;;5066555;28;20394;-62
2023/02/22 17:46:18;;;;;;;34.67;18.23;;;10.10;99.90;;;;;;5065187;28;20507;-60
2023/02/22 17:48:44;;;;;;;38.55;19.13;;;10.00;99.90;;;;;;5062942;28;20021;-59
2023/02/22 17:51:11;;;;;;;28.45;17.10;;;10.00;99.90;;;;;;5068004;28;20020;-61
2023/02/22 17:53:37;;;;;;;28.98;17.33;;;10.00;99.90;;;;;;5066164;28;20021;-61
2023/02/22 17:56:07;;;;;;;33.45;19.08;;;10.00;99.90;;;;;;5067204;28;20499;-61
2023/02/22 17:58:33;;;;;;;34.40;18.10;;;10.00;99.90;;;;;;5065799;28;20024;-61
2023/02/22 18:00:59;;;;;;;32.85;19.05;;;10.00;99.90;;;;;;5065589;28;20154;-59
2023/02/22 18:03:26;;;;;;;36.00;18.52;;;10.00;99.90;;;;;;5066546;28;20476;-59
2023/02/22 18:05:56;;;;;;;29.23;18.05;;;10.00;99.90;;;;;;5067003;28;20024;-59
2023/02/22 18:08:23;;;;;;;30.77;18.10;;;10.00;99.90;;;;;;5066993;28;20033;-60
2023/02/22 18:10:51;;;;;;;34.55;20.55;;;9.90;99.90;;;;;;5066633;28;20066;-60
2023/02/22 18:13:17;;;;;;;36.00;20.45;;;10.00;99.90;;;;;;5066110;28;20025;-61
2023/02/22 18:15:45;;;;;;;34.45;20.05;;;9.90;99.90;;;;;;5054106;28;20137;-60
2023/02/22 18:18:10;;;;;;;34.55;19.40;;;9.90;99.90;;;;;;5054016;28;20028;-63
2023/02/22 18:20:43;;;;;;;32.67;19.52;;;9.90;99.90;;;;;;5051844;28;20021;-62
2023/02/22 18:23:18;;;;;;;38.92;22.00;;;9.90;99.90;;;;;;5053579;28;20108;-61
2023/02/22 18:25:49;;;;;;;35.72;21.35;;;9.90;99.90;;;;;;5052571;28;20051;-61
2023/02/22 18:28:17;;;;;;;37.58;22.65;;;9.90;99.90;;;;;;5053018;28;20029;-61
2023/02/22 18:30:43;;;;;;;36.85;21.85;;;9.90;99.90;;;;;;5052975;28;20055;-61
2023/02/22 18:33:10;;;;;;;37.47;20.50;;;9.80;99.90;;;;;;5053417;28;20025;-61
2023/02/22 18:35:46;;;;;;;30.35;18.58;;;9.90;99.90;;;;;;5052245;28;20035;-62
2023/02/22 18:38:13;;;;;;;34.50;19.23;;;9.80;99.90;;;;;;5052235;28;20025;-62
2023/02/22 18:40:45;;;;;;;31.52;19.45;;;9.80;99.90;;;;;;5037812;28;20048;-62
2023/02/22 18:43:11;;;;;;;34.97;20.00;;;9.90;99.90;;;;;;5046932;28;20592;-61
2023/02/22 18:45:37;;;;;;;32.97;19.52;;;9.80;99.90;;;;;;5051486;28;20111;-62
2023/02/22 18:48:03;;;;;;;34.42;18.42;;;9.80;99.90;;;;;;5052692;28;20100;-61
2023/02/22 18:50:28;;;;;;;35.60;22.05;;;9.90;99.90;;;;;;5048481;28;20032;-61
2023/02/22 18:52:54;;;;;;;37.85;20.88;;;9.80;99.90;;;;;;5052987;28;20067;-61
2023/02/22 18:55:21;;;;;;;30.20;20.10;;;9.80;99.90;;;;;;5050994;28;20036;-62
2023/02/22 18:57:49;;;;;;;37.10;21.70;;;9.80;99.90;;;;;;5052884;28;20033;-62
2023/02/22 19:00:17;;;;;;;36.92;20.10;;;9.90;99.90;;;;;;5051567;28;20075;-62
2023/02/22 19:02:43;;;;;;;38.70;22.92;;;9.90;99.90;;;;;;5051350;28;20055;-61
2023/02/22 19:05:11;;;;;;;37.90;21.60;;;9.90;99.90;;;;;;5052891;28;20021;-62
2023/02/22 19:07:36;;;;;;;34.60;20.55;;;9.90;99.90;;;;;;5051417;28;20021;-61
2023/02/22 19:10:03;;;;;;;36.65;20.83;;;9.90;99.90;;;;;;5051219;28;20036;-63
2023/02/22 19:12:30;;;;;;;38.35;22.17;;;9.90;99.90;;;;;;5051425;28;20029;-61
2023/02/22 19:14:57;;;;;;;41.20;23.00;;;9.80;99.90;;;;;;5052193;28;20040;-61
2023/02/22 19:17:23;;;;;;;40.40;23.38;;;9.80;99.90;;;;;;5051992;28;20025;-61
2023/02/22 19:19:48;;;;;;;44.30;26.08;;;9.80;99.90;;;;;;5052311;28;20025;-61
2023/02/22 19:22:14;;;;;;;46.22;27.40;;;9.70;99.90;;;;;;5052250;28;20033;-61
2023/02/22 19:24:41;;;;;;;63.25;32.88;;;9.70;99.90;;;;;;5052283;28;20032;-61
2023/02/22 19:27:07;;;;;;;62.70;31.63;;;9.70;99.90;;;;;;5051042;28;20056;-60
2023/02/22 19:29:36;;;;;;;51.08;28.20;;;9.60;99.90;;;;;;5052372;28;20557;-61
2023/02/22 19:32:02;;;;;;;59.70;31.92;;;9.60;99.90;;;;;;5051297;28;20120;-61
2023/02/22 19:34:30;;;;;;;66.90;33.83;;;9.60;99.90;;;;;;5052117;28;20524;-61
